Time;durP1;ratioP1;P1;durP2;ratioP2;P2;SDS_P1;SDS_P2;PMS_P1;PMS_P2;Temp;Humidity;BMP_temperature;BMP_pressure;BME280_temperature;BME280_humidity;BME280_pressure;Samples;Min_cycle;Max_cycle;Signal;HPM_P1;HPM_P2
2023/05/17 00:01:51;;;;;;;23.08;3.92;;;9.60;93.20;;;;;;5087817;28;20108;-68
2023/05/17 00:04:16;;;;;;;19.38;3.40;;;9.60;94.60;;;;;;5089315;28;20048;-71
2023/05/17 00:06:42;;;;;;;18.98;2.95;;;9.60;94.70;;;;;;5090387;28;20082;-64
2023/05/17 00:09:09;;;;;;;13.48;2.40;;;9.60;94.90;;;;;;5092024;27;20107;-65
2023/05/17 00:11:35;;;;;;;12.45;2.25;;;9.60;93.90;;;;;;5076792;27;20047;-64
2023/05/17 00:14:01;;;;;;;20.75;3.20;;;9.60;93.30;;;;;;5109664;27;20149;-69
2023/05/17 00:16:27;;;;;;;13.00;3.70;;;9.60;93.80;;;;;;5108830;27;20490;-71
2023/05/17 00:18:52;;;;;;;15.23;2.63;;;9.70;94.00;;;;;;5110424;27;20047;-65
2023/05/17 00:21:18;;;;;;;19.13;3.22;;;9.70;92.50;;;;;;5092564;28;20517;-64
2023/05/17 00:23:44;;;;;;;15.85;2.50;;;9.70;94.10;;;;;;5076223;27;20137;-68
2023/05/17 00:26:10;;;;;;;13.20;3.03;;;9.70;93.60;;;;;;5086514;28;20048;-70
2023/05/17 00:28:36;;;;;;;20.88;3.63;;;9.60;92.10;;;;;;5106828;28;20062;-63
2023/05/17 00:31:02;;;;;;;14.77;2.47;;;9.70;94.10;;;;;;5105682;27;20104;-65
2023/05/17 00:33:28;;;;;;;15.50;2.95;;;9.60;92.50;;;;;;5104857;28;20122;-71
2023/05/17 00:35:53;;;;;;;17.95;3.03;;;9.60;95.20;;;;;;5072157;28;20248;-63
2023/05/17 00:38:19;;;;;;;20.17;2.85;;;9.60;94.00;;;;;;5092427;27;20053;-70
2023/05/17 00:40:45;;;;;;;17.67;3.42;;;9.60;95.20;;;;;;5091053;28;20046;-63
2023/05/17 00:43:11;;;;;;;20.70;3.42;;;9.60;96.40;;;;;;5108379;27;20051;-67
2023/05/17 00:45:36;;;;;;;25.05;3.25;;;9.50;96.40;;;;;;5075353;27;20146;-67
2023/05/17 00:48:02;;;;;;;19.02;2.78;;;9.50;96.30;;;;;;5109102;27;20046;-70
2023/05/17 00:50:28;;;;;;;17.23;3.25;;;9.50;96.60;;;;;;5091920;27;20430;-69
2023/05/17 00:52:55;;;;;;;20.75;3.65;;;9.60;96.40;;;;;;5098354;28;20138;-62
2023/05/17 00:55:20;;;;;;;15.23;2.75;;;9.60;96.60;;;;;;5139828;27;20065;-66
2023/05/17 00:57:47;;;;;;;16.42;2.83;;;9.60;96.90;;;;;;5092375;27;20485;-72
2023/05/17 01:00:13;;;;;;;23.83;3.38;;;9.60;97.10;;;;;;5108110;27;20054;-68
2023/05/17 01:02:39;;;;;;;21.33;3.97;;;9.60;96.30;;;;;;5085036;27;20381;-63
2023/05/17 01:05:05;;;;;;;20.85;3.00;;;9.70;95.20;;;;;;5107916;27;20073;-67
2023/05/17 01:07:31;;;;;;;13.27;2.78;;;9.70;93.60;;;;;;5107269;27;20527;-64
2023/05/17 01:09:57;;;;;;;19.23;2.90;;;9.70;93.10;;;;;;5091374;27;20062;-69
2023/05/17 01:12:31;;;;;;;12.75;2.55;;;9.60;93.60;;;;;;5092119;27;20457;-64
2023/05/17 01:15:20;;;;;;;12.05;2.70;;;9.60;91.10;;;;;;5082398;28;20075;-66
2023/05/17 01:18:14;;;;;;;12.10;2.50;;;9.60;91.90;;;;;;5105085;28;20044;-68
2023/05/17 01:20:44;;;;;;;15.50;2.70;;;9.60;93.10;;;;;;5089199;28;20052;-68
2023/05/17 01:23:35;;;;;;;17.58;2.50;;;9.60;94.70;;;;;;5105391;27;20075;-69
2023/05/17 01:26:06;;;;;;;16.10;2.60;;;9.50;95.30;;;;;;5101056;28;20524;-63
2023/05/17 01:28:32;;;;;;;12.90;2.42;;;9.50;96.90;;;;;;5091577;27;20050;-70
2023/05/17 01:31:01;;;;;;;13.45;2.60;;;9.50;99.30;;;;;;5071047;27;20043;-69
2023/05/17 01:33:28;;;;;;;16.02;3.17;;;9.60;93.30;;;;;;5088117;28;20040;-77
2023/05/17 01:35:54;;;;;;;14.70;2.35;;;9.60;89.30;;;;;;5101165;27;20233;-64
2023/05/17 01:38:20;;;;;;;18.67;2.40;;;9.60;85.50;;;;;;5091855;27;21006;-65
2023/05/17 01:41:03;;;;;;;12.63;2.53;;;9.60;89.10;;;;;;5108486;27;20392;-66
2023/05/17 01:43:42;;;;;;;14.05;2.55;;;9.60;85.80;;;;;;5090282;27;20047;-66
2023/05/17 01:46:31;;;;;;;21.17;2.60;;;9.50;88.00;;;;;;5091706;27;20107;-67
2023/05/17 01:49:13;;;;;;;11.70;2.58;;;9.60;95.40;;;;;;5085116;27;20043;-68
2023/05/17 01:51:56;;;;;;;19.80;2.53;;;9.60;95.10;;;;;;5106819;27;20555;-62
2023/05/17 01:54:27;;;;;;;18.38;2.70;;;9.60;93.00;;;;;;5098869;27;20039;-74
2023/05/17 01:56:57;;;;;;;18.02;2.90;;;9.50;93.90;;;;;;5107995;27;20385;-68
2023/05/17 01:59:24;;;;;;;17.15;2.60;;;9.50;90.70;;;;;;5097393;28;20389;-64
2023/05/17 02:01:57;;;;;;;15.35;2.20;;;9.40;87.30;;;;;;5079287;28;20071;-71
2023/05/17 02:04:25;;;;;;;14.18;2.22;;;9.30;82.90;;;;;;5108207;27;20047;-68
2023/05/17 02:06:51;;;;;;;20.27;2.97;;;9.30;80.60;;;;;;5088591;28;20051;-63
2023/05/17 02:09:16;;;;;;;12.18;2.20;;;9.20;80.80;;;;;;5108175;27;20058;-64
2023/05/17 02:11:42;;;;;;;11.30;2.38;;;9.20;72.60;;;;;;5099275;28;20062;-71
2023/05/17 02:14:08;;;;;;;14.55;2.42;;;9.10;78.50;;;;;;5103934;28;20056;-62
2023/05/17 02:16:34;;;;;;;12.35;2.17;;;9.10;82.90;;;;;;5104710;28;20044;-65
2023/05/17 02:18:59;;;;;;;12.45;2.17;;;9.10;88.20;;;;;;5053603;28;20067;-73
2023/05/17 02:21:25;;;;;;;14.73;2.13;;;9.10;87.30;;;;;;5104054;28;20075;-67
2023/05/17 02:23:51;;;;;;;12.02;2.00;;;9.10;79.20;;;;;;5107335;28;20040;-69
2023/05/17 02:26:17;;;;;;;13.65;1.98;;;9.10;75.50;;;;;;5084213;28;20054;-64
2023/05/17 02:28:43;;;;;;;21.70;2.65;;;9.10;70.60;;;;;;5087479;28;20071;-68
2023/05/17 02:31:09;;;;;;;17.13;2.58;;;9.10;76.70;;;;;;5102746;28;20488;-69
2023/05/17 02:33:35;;;;;;;16.33;1.98;;;9.10;63.60;;;;;;5087061;28;20055;-66
2023/05/17 02:36:00;;;;;;;12.20;2.72;;;9.10;56.60;;;;;;5070136;28;20100;-64
2023/05/17 02:38:26;;;;;;;13.63;1.80;;;9.10;65.20;;;;;;5104080;28;20078;-65
2023/05/17 02:40:52;;;;;;;11.57;3.67;;;9.10;69.00;;;;;;5101368;28;20046;-73
2023/05/17 02:43:18;;;;;;;14.60;2.20;;;9.00;63.40;;;;;;5104487;28;20047;-66
2023/05/17 02:45:44;;;;;;;9.68;1.90;;;9.00;64.10;;;;;;5087303;28;20397;-67
2023/05/17 02:48:10;;;;;;;14.38;2.08;;;9.00;50.20;;;;;;5104297;28;20122;-74
2023/05/17 02:50:35;;;;;;;11.40;2.00;;;9.00;57.10;;;;;;5070102;28;20524;-65
2023/05/17 02:53:01;;;;;;;6.18;1.48;;;9.00;62.90;;;;;;5089097;28;20061;-68
2023/05/17 02:55:27;;;;;;;12.45;2.13;;;9.00;61.50;;;;;;5087003;28;20418;-69
2023/05/17 02:57:53;;;;;;;15.02;1.98;;;8.90;54.30;;;;;;5102649;28;20039;-69
2023/05/17 03:00:18;;;;;;;12.02;1.88;;;8.90;52.40;;;;;;5079834;28;20054;-66
2023/05/17 03:02:44;;;;;;;11.98;2.47;;;8.90;55.80;;;;;;5091484;28;20405;-67
2023/05/17 03:05:10;;;;;;;17.83;2.17;;;8.90;59.50;;;;;;5102668;28;20055;-64
2023/05/17 03:07:36;;;;;;;15.80;2.38;;;8.90;63.80;;;;;;5110635;27;20051;-65
2023/05/17 03:10:02;;;;;;;8.68;2.00;;;8.90;62.80;;;;;;5111044;27;20051;-68
2023/05/17 03:12:28;;;;;;;9.40;1.67;;;8.90;48.90;;;;;;5108614;27;20051;-64
2023/05/17 03:14:53;;;;;;;8.27;1.15;;;8.90;50.60;;;;;;5082313;27;20081;-65
2023/05/17 03:17:19;;;;;;;13.38;1.80;;;8.90;53.10;;;;;;5112118;27;20408;-67
2023/05/17 03:19:45;;;;;;;11.38;1.60;;;8.90;47.60;;;;;;5093578;27;20042;-68
2023/05/17 03:22:11;;;;;;;14.82;1.83;;;8.90;48.80;;;;;;5077865;27;20047;-68
2023/05/17 03:24:36;;;;;;;13.48;1.75;;;8.90;48.00;;;;;;5048167;27;20545;-69
2023/05/17 03:27:02;;;;;;;10.82;2.03;;;8.90;56.20;;;;;;5094218;27;20054;-66
2023/05/17 03:29:28;;;;;;;13.60;1.75;;;9.00;65.20;;;;;;5094158;27;20055;-63
2023/05/17 03:31:55;;;;;;;16.67;3.15;;;9.00;70.30;;;;;;5109078;27;20047;-72
2023/05/17 03:34:20;;;;;;;11.30;2.05;;;9.10;71.40;;;;;;5093129;27;20038;-65
2023/05/17 03:36:46;;;;;;;5.47;1.38;;;9.00;57.20;;;;;;5109450;27;20099;-66
2023/05/17 03:39:12;;;;;;;14.43;1.90;;;9.00;53.30;;;;;;5094577;27;20039;-66
2023/05/17 03:41:37;;;;;;;13.63;2.45;;;9.00;52.00;;;;;;5093053;27;20377;-63
2023/05/17 03:44:03;;;;;;;12.32;1.55;;;9.00;46.10;;;;;;5110443;27;20035;-67
2023/05/17 03:46:29;;;;;;;16.05;2.17;;;9.00;49.50;;;;;;5111452;27;20054;-71
2023/05/17 03:48:55;;;;;;;10.30;1.50;;;9.00;40.80;;;;;;5093271;27;20039;-74
2023/05/17 03:51:21;;;;;;;14.93;2.10;;;8.90;34.90;;;;;;5074384;28;20079;-70
2023/05/17 03:53:46;;;;;;;11.75;2.50;;;8.90;36.30;;;;;;5072265;28;20112;-73
2023/05/17 03:56:12;;;;;;;13.27;1.88;;;8.90;26.00;;;;;;5092040;28;20100;-64
2023/05/17 03:58:38;;;;;;;10.85;1.45;;;8.80;26.90;;;;;;5072382;28;20497;-64
2023/05/17 04:01:04;;;;;;;6.75;1.70;;;8.80;39.20;;;;;;5124306;27;20496;-70
2023/05/17 04:03:30;;;;;;;6.60;0.93;;;8.80;24.50;;;;;;5088977;28;20055;-68
2023/05/17 04:06:06;;;;;;;9.88;2.10;;;8.80;31.10;;;;;;5074503;28;20091;-67
2023/05/17 04:08:35;;;;;;;7.70;1.55;;;8.80;25.30;;;;;;5056605;28;20043;-69
2023/05/17 04:11:09;;;;;;;13.38;1.67;;;8.80;24.50;;;;;;5073497;28;20043;-64
2023/05/17 04:13:36;;;;;;;12.10;1.88;;;8.70;22.70;;;;;;5101109;27;20516;-63
2023/05/17 04:16:02;;;;;;;7.45;1.88;;;8.70;20.90;;;;;;5106899;27;20154;-63
2023/05/17 04:18:28;;;;;;;14.23;1.65;;;8.70;23.70;;;;;;5108935;27;20112;-63
2023/05/17 04:20:56;;;;;;;12.57;1.55;;;8.70;25.00;;;;;;5090699;27;20043;-62
2023/05/17 04:23:22;;;;;;;6.28;1.38;;;8.80;27.60;;;;;;5069264;28;20039;-70
2023/05/17 04:25:48;;;;;;;12.20;1.75;;;8.80;28.70;;;;;;5097159;27;20099;-69
2023/05/17 04:28:13;;;;;;;14.68;3.17;;;8.80;27.60;;;;;;5092124;28;20068;-73
2023/05/17 04:30:43;;;;;;;6.00;1.30;;;8.80;25.10;;;;;;5106143;28;20481;-68
2023/05/17 04:33:09;;;;;;;6.65;1.67;;;8.90;29.90;;;;;;5103735;28;20138;-66
2023/05/17 04:35:36;;;;;;;14.93;1.55;;;8.90;27.00;;;;;;5106324;28;20097;-72
2023/05/17 04:38:02;;;;;;;8.18;1.58;;;8.90;31.20;;;;;;5076829;28;20122;-69
2023/05/17 04:40:27;;;;;;;8.82;1.48;;;8.90;33.00;;;;;;5089547;28;20122;-70
2023/05/17 04:42:53;;;;;;;10.00;1.38;;;8.90;32.50;;;;;;5106905;28;20404;-63
2023/05/17 04:45:19;;;;;;;16.63;2.20;;;9.00;39.90;;;;;;5088990;28;20044;-69
2023/05/17 04:47:46;;;;;;;18.65;2.97;;;9.00;47.20;;;;;;5101471;28;20515;-70
2023/05/17 04:50:11;;;;;;;14.52;3.28;;;9.10;56.50;;;;;;5087630;28;20058;-63
2023/05/17 04:52:37;;;;;;;13.25;2.30;;;9.10;44.30;;;;;;5106125;28;20048;-62
2023/05/17 04:55:04;;;;;;;17.92;2.95;;;9.10;42.80;;;;;;5088447;27;20044;-68
2023/05/17 04:57:29;;;;;;;19.55;2.90;;;9.10;40.50;;;;;;5080687;27;20539;-69
2023/05/17 04:59:55;;;;;;;14.93;2.60;;;9.10;44.30;;;;;;5093413;28;20523;-68
2023/05/17 05:02:21;;;;;;;12.10;2.38;;;9.10;33.60;;;;;;5065455;28;20440;-63
2023/05/17 05:04:46;;;;;;;14.20;2.50;;;9.10;30.00;;;;;;5105532;28;20044;-66
2023/05/17 05:07:12;;;;;;;24.70;2.85;;;9.10;33.60;;;;;;5104751;28;20046;-71
2023/05/17 05:09:38;;;;;;;17.58;3.03;;;9.10;29.30;;;;;;5101340;28;20055;-65
2023/05/17 05:12:04;;;;;;;16.73;2.58;;;9.10;24.30;;;;;;5087997;28;20126;-65
2023/05/17 05:14:30;;;;;;;8.60;2.20;;;9.00;19.90;;;;;;5071604;28;20507;-61
2023/05/17 05:16:56;;;;;;;16.60;2.67;;;9.00;27.00;;;;;;5087996;28;20047;-64
2023/05/17 05:19:21;;;;;;;23.10;2.63;;;9.00;23.90;;;;;;5105007;27;20154;-74
2023/05/17 05:21:47;;;;;;;21.45;2.53;;;9.00;20.00;;;;;;5105196;28;20048;-63
2023/05/17 05:24:13;;;;;;;14.52;2.47;;;9.10;22.70;;;;;;5087986;28;20409;-68
2023/05/17 05:26:40;;;;;;;14.32;2.58;;;9.20;21.70;;;;;;5108663;28;20108;-66
2023/05/17 05:29:05;;;;;;;17.17;2.50;;;9.30;22.90;;;;;;5089414;27;20047;-72
2023/05/17 05:31:31;;;;;;;19.23;2.63;;;9.30;21.00;;;;;;5085435;28;20100;-67
2023/05/17 05:33:57;;;;;;;37.80;3.55;;;9.40;24.00;;;;;;5104223;28;20054;-67
2023/05/17 05:36:23;;;;;;;14.73;2.70;;;9.30;22.40;;;;;;5106953;28;20054;-68
2023/05/17 05:38:48;;;;;;;15.80;3.08;;;9.30;23.00;;;;;;5090939;27;20047;-66
2023/05/17 05:41:14;;;;;;;13.43;2.58;;;9.30;12.80;;;;;;5077762;28;20039;-65
2023/05/17 05:43:40;;;;;;;17.50;2.47;;;9.20;13.60;;;;;;5091694;27;20147;-70
2023/05/17 05:46:06;;;;;;;15.25;2.30;;;9.20;14.50;;;;;;5090790;27;20493;-62
2023/05/17 05:48:32;;;;;;;18.55;2.65;;;9.20;11.10;;;;;;5091439;27;20036;-68
2023/05/17 05:50:58;;;;;;;12.38;2.55;;;9.20;16.50;;;;;;5083666;28;20043;-65
2023/05/17 05:53:23;;;;;;;15.77;4.35;;;9.20;12.10;;;;;;5105595;27;20051;-64
2023/05/17 05:55:49;;;;;;;17.95;2.67;;;9.20;11.30;;;;;;5090879;27;20054;-67
2023/05/17 05:58:15;;;;;;;19.25;3.05;;;9.20;15.70;;;;;;5108365;27;20512;-64
2023/05/17 06:00:40;;;;;;;13.13;2.53;;;9.20;18.80;;;;;;5107559;27;20077;-67
2023/05/17 06:03:06;;;;;;;15.63;2.75;;;9.20;18.90;;;;;;5083247;28;20137;-75
2023/05/17 06:05:32;;;;;;;14.77;2.60;;;9.10;20.00;;;;;;5108641;27;20132;-64
2023/05/17 06:07:58;;;;;;;19.50;3.30;;;9.10;21.00;;;;;;5090287;27;20443;-63
2023/05/17 06:10:24;;;;;;;18.33;2.80;;;9.10;24.70;;;;;;5108341;27;20435;-66
2023/05/17 06:12:50;;;;;;;13.88;2.33;;;9.20;27.70;;;;;;5106403;27;20053;-68
2023/05/17 06:15:15;;;;;;;21.63;3.28;;;9.30;27.80;;;;;;5091383;27;20507;-66
2023/05/17 06:17:41;;;;;;;25.77;3.08;;;9.30;26.40;;;;;;5107677;27;20130;-67
2023/05/17 06:20:08;;;;;;;14.07;2.70;;;9.30;25.70;;;;;;5126061;27;20457;-66
2023/05/17 06:22:34;;;;;;;16.17;2.95;;;9.40;25.60;;;;;;5105616;28;20086;-71
2023/05/17 06:25:00;;;;;;;18.15;2.75;;;9.30;18.00;;;;;;5086656;28;20043;-66
2023/05/17 06:27:25;;;;;;;24.83;3.55;;;9.30;16.30;;;;;;5078882;28;20091;-63
2023/05/17 06:29:51;;;;;;;15.57;2.60;;;9.40;20.10;;;;;;5085316;28;20123;-66
2023/05/17 06:32:18;;;;;;;18.23;2.20;;;9.60;22.70;;;;;;5077950;28;20066;-72
2023/05/17 06:34:43;;;;;;;14.43;2.35;;;9.80;21.30;;;;;;5085934;28;20529;-65
2023/05/17 06:37:09;;;;;;;19.70;2.03;;;9.90;15.00;;;;;;5071965;28;20040;-66
2023/05/17 06:39:35;;;;;;;12.98;1.92;;;9.90;9.50;;;;;;5071346;28;20134;-67
2023/05/17 06:42:01;;;;;;;10.30;2.10;;;9.90;11.70;;;;;;5102938;28;20134;-70
2023/05/17 06:44:26;;;;;;;16.30;2.33;;;9.90;12.70;;;;;;5096598;28;20047;-63
2023/05/17 06:46:52;;;;;;;11.45;2.35;;;9.90;10.70;;;;;;5090026;28;20512;-74
2023/05/17 06:49:18;;;;;;;11.93;2.20;;;9.80;4.90;;;;;;5056075;28;20048;-67
2023/05/17 06:51:43;;;;;;;10.23;1.70;;;9.80;1.00;;;;;;5096422;27;20039;-65
2023/05/17 06:54:09;;;;;;;18.60;2.67;;;9.80;3.90;;;;;;5111737;27;20401;-70
2023/05/17 06:56:35;;;;;;;16.02;2.22;;;9.80;9.00;;;;;;5094046;27;20050;-65
2023/05/17 06:59:01;;;;;;;17.75;2.00;;;9.70;7.60;;;;;;5094474;27;20035;-67
2023/05/17 07:01:26;;;;;;;13.75;2.35;;;9.60;7.40;;;;;;5080567;28;20051;-65
2023/05/17 07:03:52;;;;;;;16.63;1.98;;;9.50;6.50;;;;;;5074966;28;20062;-73
2023/05/17 07:06:18;;;;;;;10.25;1.83;;;9.50;11.90;;;;;;5080966;28;20062;-68
2023/05/17 07:08:44;;;;;;;8.35;1.20;;;9.50;8.30;;;;;;5087724;28;20208;-69
2023/05/17 07:11:10;;;;;;;16.17;1.80;;;9.50;1.00;;;;;;5109733;27;20458;-66
2023/05/17 07:13:35;;;;;;;8.07;1.90;;;9.40;1.00;;;;;;5072089;28;20055;-68
2023/05/17 07:16:01;;;;;;;12.35;2.20;;;9.50;5.70;;;;;;5087959;28;20496;-62
2023/05/17 07:18:27;;;;;;;16.25;2.22;;;9.50;5.40;;;;;;5092723;28;20051;-70
2023/05/17 07:20:52;;;;;;;13.00;1.73;;;9.50;13.40;;;;;;5074010;28;20052;-69
2023/05/17 07:23:18;;;;;;;12.05;1.67;;;9.50;14.90;;;;;;5124005;27;20039;-68
2023/05/17 07:25:45;;;;;;;12.95;2.15;;;9.60;17.30;;;;;;5073591;28;20046;-64
2023/05/17 07:28:10;;;;;;;12.60;2.20;;;9.60;14.20;;;;;;5091379;28;20055;-66
2023/05/17 07:30:36;;;;;;;10.38;1.85;;;9.60;14.90;;;;;;5072833;28;20104;-67
2023/05/17 07:33:02;;;;;;;5.93;1.63;;;9.70;9.70;;;;;;5072643;28;20404;-64
2023/05/17 07:35:28;;;;;;;12.85;2.45;;;9.70;4.50;;;;;;5073675;28;20052;-62
2023/05/17 07:37:54;;;;;;;13.60;1.98;;;9.90;6.90;;;;;;5090769;28;20370;-63
2023/05/17 07:40:20;;;;;;;14.52;2.05;;;10.00;1.00;;;;;;5102119;28;20044;-62
2023/05/17 07:42:46;;;;;;;10.90;2.20;;;10.10;7.10;;;;;;5089363;28;20482;-65
2023/05/17 07:45:12;;;;;;;12.45;2.13;;;10.10;1.00;;;;;;5089313;28;20058;-71
2023/05/17 07:47:37;;;;;;;10.82;1.90;;;10.20;1.00;;;;;;5090031;28;20067;-63
2023/05/17 07:50:04;;;;;;;8.70;1.98;;;10.30;1.00;;;;;;5089429;28;20077;-64
2023/05/17 07:52:30;;;;;;;8.40;1.80;;;10.30;1.00;;;;;;5081807;28;20114;-63
2023/05/17 07:54:55;;;;;;;9.77;1.70;;;10.40;1.00;;;;;;5057185;28;20481;-64
2023/05/17 07:57:21;;;;;;;10.82;2.17;;;10.40;1.00;;;;;;5072768;28;20126;-67
2023/05/17 07:59:47;;;;;;;12.32;1.85;;;10.40;1.00;;;;;;5054273;28;20547;-65
2023/05/17 08:02:12;;;;;;;11.88;1.85;;;10.30;1.00;;;;;;5089173;28;20055;-65
2023/05/17 08:04:38;;;;;;;15.88;2.47;;;10.20;1.00;;;;;;5089085;28;20047;-68
2023/05/17 08:07:04;;;;;;;14.98;1.92;;;10.10;1.00;;;;;;5123469;27;20093;-67
2023/05/17 08:09:30;;;;;;;12.27;2.10;;;10.10;1.00;;;;;;5126907;27;20058;-64
2023/05/17 08:11:56;;;;;;;8.52;2.17;;;10.10;1.00;;;;;;5081707;28;20053;-69
2023/05/17 08:14:23;;;;;;;12.25;1.90;;;10.10;1.00;;;;;;5107898;27;20802;-65
2023/05/17 08:16:50;;;;;;;9.20;1.75;;;10.20;1.00;;;;;;5110109;27;20043;-63
2023/05/17 08:19:17;;;;;;;8.02;1.63;;;10.30;1.00;;;;;;5092748;27;20047;-64
2023/05/17 08:21:44;;;;;;;10.48;1.75;;;10.30;1.00;;;;;;5069359;27;20031;-65
2023/05/17 08:24:11;;;;;;;6.13;1.63;;;10.30;1.00;;;;;;5092443;27;20043;-70
2023/05/17 08:26:37;;;;;;;10.93;1.58;;;10.20;1.00;;;;;;5109658;27;20469;-67
2023/05/17 08:29:03;;;;;;;7.82;1.50;;;10.20;1.00;;;;;;5110560;27;20094;-69
2023/05/17 08:31:30;;;;;;;6.20;1.40;;;10.10;1.00;;;;;;5089593;27;20409;-63
2023/05/17 08:33:56;;;;;;;9.27;1.60;;;10.10;1.40;;;;;;5108275;27;20047;-70
2023/05/17 08:36:21;;;;;;;13.95;2.50;;;10.00;1.00;;;;;;5090877;28;20070;-67
2023/05/17 08:38:47;;;;;;;13.43;2.47;;;9.90;1.00;;;;;;5070923;28;20043;-63
2023/05/17 08:41:13;;;;;;;14.07;1.45;;;9.90;1.00;;;;;;5070943;27;20469;-64
2023/05/17 08:43:40;;;;;;;14.75;1.80;;;9.90;4.00;;;;;;5080820;28;20117;-64
2023/05/17 08:46:07;;;;;;;9.23;2.13;;;10.00;10.20;;;;;;5088939;28;20501;-67
2023/05/17 08:48:35;;;;;;;16.75;2.08;;;10.00;1.40;;;;;;5072094;27;20051;-70
2023/05/17 08:51:02;;;;;;;5.95;1.40;;;10.10;1.00;;;;;;5073122;28;20409;-64
2023/05/17 08:53:28;;;;;;;6.30;1.55;;;10.00;1.00;;;;;;5075487;28;20318;-69
2023/05/17 08:56:01;;;;;;;7.78;1.75;;;10.20;1.00;;;;;;5111028;27;20466;-65
2023/05/17 08:58:38;;;;;;;11.32;1.90;;;10.30;1.00;;;;;;5087789;28;20215;-70
2023/05/17 09:01:07;;;;;;;10.60;1.83;;;10.50;1.00;;;;;;5064568;28;20043;-70
2023/05/17 09:03:34;;;;;;;7.32;1.67;;;10.70;3.60;;;;;;5082179;28;20098;-62
2023/05/17 09:06:00;;;;;;;16.30;2.22;;;10.80;1.00;;;;;;5088063;28;20049;-66
2023/05/17 09:08:27;;;;;;;3.63;1.63;;;10.80;1.00;;;;;;5071115;28;20135;-67
2023/05/17 09:10:58;;;;;;;10.77;1.85;;;10.70;1.00;;;;;;5059572;27;20096;-68
2023/05/17 09:13:24;;;;;;;19.27;2.55;;;10.60;9.50;;;;;;5100849;27;20130;-71
2023/05/17 09:15:50;;;;;;;11.25;1.88;;;10.60;17.10;;;;;;5068328;27;20115;-64
2023/05/17 09:18:16;;;;;;;4.72;1.45;;;10.50;17.20;;;;;;5101915;28;20039;-66
2023/05/17 09:20:50;;;;;;;9.43;1.92;;;10.30;13.40;;;;;;5050885;28;20048;-73
2023/05/17 09:23:19;;;;;;;9.45;1.65;;;10.20;16.10;;;;;;5084639;27;20047;-73
2023/05/17 09:25:48;;;;;;;10.05;2.45;;;10.20;17.40;;;;;;5098930;28;20140;-69
2023/05/17 09:28:19;;;;;;;9.63;2.10;;;10.10;16.00;;;;;;5077612;28;20051;-67
2023/05/17 09:30:46;;;;;;;;;;;10.10;16.70;;;;;;5086850;28;20059;-66
2023/05/17 09:33:12;;;;;;;4.93;1.38;;;10.20;16.50;;;;;;5089785;28;19931;-72
2023/05/17 09:35:38;;;;;;;10.30;1.83;;;10.30;2.50;;;;;;5083542;28;20039;-64
2023/05/17 09:38:10;;;;;;;7.78;1.27;;;10.40;5.80;;;;;;5069833;28;20043;-66
2023/05/17 09:40:44;;;;;;;13.98;1.90;;;10.40;1.00;;;;;;5071295;27;20050;-63
2023/05/17 09:43:13;;;;;;;8.40;1.58;;;10.60;1.00;;;;;;5087503;28;20058;-65
2023/05/17 09:45:39;;;;;;;8.30;1.60;;;10.80;1.00;;;;;;5070317;27;20044;-68
2023/05/17 09:48:16;;;;;;;14.38;1.73;;;11.00;1.00;;;;;;5090758;28;20036;-69
2023/05/17 09:50:47;;;;;;;8.35;1.35;;;11.10;1.00;;;;;;5088796;28;20138;-72
2023/05/17 09:53:30;;;;;;;9.98;2.03;;;11.50;1.00;;;;;;5107429;27;20104;-74
2023/05/17 09:55:58;;;;;;;9.23;1.92;;;11.80;1.00;;;;;;5094416;27;20132;-67
2023/05/17 09:58:25;;;;;;;10.57;2.25;;;11.60;1.00;;;;;;5080848;28;20055;-67
2023/05/17 10:01:10;;;;;;;11.65;1.77;;;11.60;1.00;;;;;;5054249;28;20047;-71
2023/05/17 10:03:36;;;;;;;13.02;2.70;;;11.70;7.30;;;;;;5067443;28;20046;-67
2023/05/17 10:06:05;;;;;;;7.55;1.73;;;11.80;1.10;;;;;;5120334;27;20371;-72
2023/05/17 10:08:32;;;;;;;12.77;1.20;;;11.80;2.70;;;;;;5067788;28;20414;-68
2023/05/17 10:11:05;;;;;;;11.50;1.90;;;11.80;1.00;;;;;;5088245;28;20096;-63
2023/05/17 10:13:54;;;;;;;9.05;1.50;;;11.90;1.00;;;;;;5087268;28;20043;-68
2023/05/17 10:16:22;;;;;;;4.85;1.35;;;11.90;1.00;;;;;;5085430;28;20108;-67
2023/05/17 10:18:48;;;;;;;3.20;1.13;;;11.90;1.00;;;;;;5068835;28;20047;-65
2023/05/17 10:21:15;;;;;;;8.98;1.55;;;11.90;1.00;;;;;;5087371;28;20044;-62
2023/05/17 10:23:48;;;;;;;10.60;1.40;;;11.90;1.00;;;;;;5077320;28;20107;-68
2023/05/17 10:26:17;;;;;;;7.55;1.65;;;11.70;1.00;;;;;;5088185;28;20040;-67
2023/05/17 10:28:45;;;;;;;6.75;1.33;;;11.60;1.00;;;;;;5087840;28;20032;-63
2023/05/17 10:31:11;;;;;;;7.97;1.60;;;11.30;1.00;;;;;;5071165;28;20035;-69
2023/05/17 10:33:38;;;;;;;12.15;2.15;;;11.20;1.00;;;;;;5072769;28;20071;-65
2023/05/17 10:36:05;;;;;;;12.43;2.33;;;11.00;1.00;;;;;;5069102;28;20156;-69
2023/05/17 10:38:31;;;;;;;6.65;1.65;;;10.90;2.20;;;;;;5091811;28;20046;-66
2023/05/17 10:40:57;;;;;;;8.85;1.80;;;10.90;9.90;;;;;;5101669;28;20040;-66
2023/05/17 10:43:24;;;;;;;6.82;1.40;;;11.00;10.20;;;;;;5091058;28;20485;-64
2023/05/17 10:45:50;;;;;;;7.55;1.70;;;11.10;11.80;;;;;;5087672;28;20474;-69
2023/05/17 10:48:17;;;;;;;12.60;1.80;;;11.20;10.00;;;;;;5088554;28;20042;-67
2023/05/17 10:50:45;;;;;;;9.20;1.52;;;11.10;4.90;;;;;;5086282;28;20048;-68
2023/05/17 10:53:11;;;;;;;15.10;2.33;;;11.10;10.00;;;;;;5071409;28;20047;-65
2023/05/17 10:55:42;;;;;;;10.73;1.88;;;11.00;2.10;;;;;;5076266;28;20050;-62
2023/05/17 10:58:15;;;;;;;8.73;2.08;;;10.90;1.00;;;;;;5089874;28;20046;-65
2023/05/17 11:00:48;;;;;;;13.32;2.30;;;10.90;1.00;;;;;;5104820;28;20804;-69
2023/05/17 11:03:19;;;;;;;6.38;1.60;;;11.00;2.70;;;;;;5085204;28;20106;-64
2023/05/17 11:06:17;;;;;;;12.75;2.00;;;11.00;1.00;;;;;;5066944;28;20100;-62
2023/05/17 11:08:46;;;;;;;6.43;1.50;;;11.00;1.00;;;;;;5084398;28;20126;-69
2023/05/17 11:11:13;;;;;;;9.63;1.98;;;11.10;1.00;;;;;;5086368;28;20076;-71
2023/05/17 11:13:55;;;;;;;7.07;1.58;;;11.20;1.00;;;;;;5086922;28;20066;-68
2023/05/17 11:16:25;;;;;;;16.42;1.77;;;11.20;1.00;;;;;;5098479;28;20040;-62
2023/05/17 11:18:52;;;;;;;;;;;11.40;1.00;;;;;;5114382;28;20059;-62
2023/05/17 11:21:19;;;;;;;12.75;2.17;;;11.60;5.00;;;;;;5086319;28;19942;-67
2023/05/17 11:23:46;;;;;;;10.07;2.42;;;11.90;2.00;;;;;;5085448;28;20071;-66
2023/05/17 11:26:27;;;;;;;8.10;1.85;;;11.90;1.00;;;;;;5089144;28;20126;-71
2023/05/17 11:29:05;;;;;;;14.45;2.03;;;11.90;1.00;;;;;;5089263;28;20040;-70
2023/05/17 11:31:34;;;;;;;10.43;1.77;;;12.00;1.00;;;;;;5089708;28;20205;-71
2023/05/17 11:34:04;;;;;;;8.13;1.80;;;12.20;1.00;;;;;;5089671;28;20126;-71
2023/05/17 11:36:31;;;;;;;9.93;1.75;;;12.10;1.00;;;;;;5089064;28;20044;-67
2023/05/17 11:39:13;;;;;;;15.07;2.15;;;12.00;1.00;;;;;;5089730;28;20384;-64
2023/05/17 11:41:46;;;;;;;5.82;2.15;;;11.90;1.00;;;;;;5089314;28;20035;-67
2023/05/17 11:44:12;;;;;;;12.23;2.30;;;11.70;1.00;;;;;;5069390;28;20052;-65
2023/05/17 11:46:39;;;;;;;13.77;1.83;;;11.50;1.00;;;;;;5122915;27;20552;-70
2023/05/17 11:49:09;;;;;;;14.48;2.83;;;11.40;1.00;;;;;;5091653;28;20047;-72
2023/05/17 11:51:36;;;;;;;12.50;2.13;;;11.40;1.00;;;;;;5090207;27;20067;-65
2023/05/17 11:54:03;;;;;;;15.13;2.33;;;11.30;1.00;;;;;;5075187;28;20059;-67
2023/05/17 11:56:35;;;;;;;8.85;2.05;;;11.30;1.00;;;;;;5085637;28;20054;-74
2023/05/17 11:59:02;;;;;;;8.82;1.90;;;11.40;1.00;;;;;;5093568;28;20052;-67
2023/05/17 12:01:43;;;;;;;10.43;1.90;;;11.50;1.00;;;;;;5073064;28;20082;-67
2023/05/17 12:04:08;;;;;;;11.95;2.53;;;11.60;1.00;;;;;;5090405;28;20047;-70
2023/05/17 12:06:35;;;;;;;12.05;2.22;;;11.50;1.00;;;;;;5072153;28;20070;-65
2023/05/17 12:09:02;;;;;;;12.10;2.20;;;11.40;1.00;;;;;;5088954;27;20485;-65
2023/05/17 12:11:28;;;;;;;10.77;1.55;;;11.40;1.00;;;;;;5109687;27;20126;-65
2023/05/17 12:13:53;;;;;;;7.97;1.70;;;11.60;1.00;;;;;;5075409;28;20221;-71
2023/05/17 12:16:21;;;;;;;4.80;1.33;;;11.70;1.00;;;;;;5071670;28;20127;-63
2023/05/17 12:18:49;;;;;;;7.35;1.92;;;11.80;1.00;;;;;;5089768;28;20051;-64
2023/05/17 12:21:17;;;;;;;13.20;2.03;;;12.10;1.00;;;;;;5120077;27;20051;-66
2023/05/17 12:23:49;;;;;;;7.93;1.85;;;12.00;1.00;;;;;;5071815;28;20054;-67
2023/05/17 12:26:16;;;;;;;9.95;1.50;;;12.10;1.00;;;;;;5068990;28;20082;-65
2023/05/17 12:28:53;;;;;;;7.55;1.77;;;12.10;1.00;;;;;;5071189;28;20051;-70
2023/05/17 12:31:25;;;;;;;8.73;1.98;;;12.00;1.00;;;;;;5072593;28;20085;-69
2023/05/17 12:33:51;;;;;;;16.92;1.77;;;11.80;1.00;;;;;;5088219;28;20099;-62
2023/05/17 12:36:17;;;;;;;5.65;1.42;;;11.80;1.00;;;;;;5089617;28;20051;-71
2023/05/17 12:38:45;;;;;;;14.43;2.20;;;11.80;1.00;;;;;;5075644;28;20058;-74
2023/05/17 12:41:15;;;;;;;8.75;1.63;;;11.90;1.00;;;;;;5055466;27;20084;-71
2023/05/17 12:43:44;;;;;;;8.48;1.60;;;11.90;1.00;;;;;;5075112;28;20133;-64
2023/05/17 12:46:18;;;;;;;10.40;1.92;;;11.90;1.00;;;;;;5095184;27;20043;-67
2023/05/17 12:48:44;;;;;;;11.43;1.70;;;12.00;1.00;;;;;;5071038;28;20051;-69
2023/05/17 12:51:21;;;;;;;11.88;2.00;;;11.80;1.00;;;;;;5088022;28;20052;-67
2023/05/17 12:53:55;;;;;;;18.90;2.33;;;11.70;1.00;;;;;;5073338;27;20052;-72